createdAt,value
2022-08-22T00:00:23.175Z,99832.59
2022-08-22T00:02:56.460Z,99814.30
2022-08-22T00:03:04.493Z,99813.56
2022-08-22T00:03:24.226Z,99835.64
2022-08-22T00:06:07.429Z,99835.19
2022-08-22T00:08:46.584Z,99833.95
2022-08-22T00:11:17.057Z,99838.46
2022-08-22T00:14:01.406Z,99841.23
2022-08-22T00:16:43.035Z,99837.31
2022-08-22T00:19:17.487Z,99839.90
2022-08-22T00:22:02.167Z,99836.40
2022-08-22T00:24:46.183Z,99840.23
2022-08-22T00:27:25.788Z,99837.45
2022-08-22T00:30:11.555Z,99839.44
2022-08-22T00:32:43.771Z,99840.12
2022-08-22T00:35:33.066Z,99840.50
2022-08-22T00:38:07.418Z,99838.17
2022-08-22T00:40:41.022Z,99838.92
2022-08-22T00:43:27.235Z,99838.21
2022-08-22T00:46:32.526Z,99842.98
2022-08-22T00:49:19.233Z,99844.40
2022-08-22T00:51:56.247Z,99842.50
2022-08-22T00:54:54.751Z,99840.11
2022-08-22T00:57:48.826Z,99840.85
2022-08-22T01:00:20.799Z,99840.09
2022-08-22T01:03:01.772Z,99843.95
2022-08-22T01:05:32.338Z,99849.04
2022-08-22T01:08:41.892Z,99848.83
2022-08-22T01:11:51.032Z,99845.41
2022-08-22T01:14:37.897Z,99847.59
2022-08-22T01:17:35.910Z,99845.05
2022-08-22T01:20:23.373Z,99847.54
2022-08-22T01:23:02.137Z,99845.64
2022-08-22T01:25:50.967Z,99850.69
2022-08-22T01:28:40.446Z,99852.49
2022-08-22T01:32:01.231Z,99854.81
2022-08-22T01:34:40.954Z,99858.49
2022-08-22T01:37:33.520Z,99860.54
2022-08-22T01:40:07.546Z,99858.92
2022-08-22T01:42:51.220Z,99855.70
2022-08-22T01:45:40.487Z,99854.54
2022-08-22T01:48:18.981Z,99854.64
2022-08-22T01:50:56.507Z,99853.39
2022-08-22T01:53:41.686Z,99855.91
2022-08-22T01:56:16.374Z,99852.27
2022-08-22T01:59:10.860Z,99847.59
2022-08-22T02:01:57.707Z,99848.94
2022-08-22T02:04:52.830Z,99848.08
2022-08-22T02:07:20.508Z,99852.59
2022-08-22T02:10:15.836Z,99852.40
2022-08-22T02:13:03.217Z,99854.67
2022-08-22T02:15:45.268Z,99853.77
2022-08-22T02:18:41.120Z,99851.90
2022-08-22T02:21:17.299Z,99850.30
2022-08-22T02:23:55.517Z,99850.61
2022-08-22T02:26:30.066Z,99854.71
2022-08-22T02:29:06.969Z,99859.61
2022-08-22T02:31:58.165Z,99859.27
2022-08-22T02:34:42.973Z,99856.48
2022-08-22T02:37:29.577Z,99858.88
2022-08-22T02:40:14.794Z,99860.80
2022-08-22T02:42:48.055Z,99858.15
2022-08-22T02:45:22.916Z,99861.27
2022-08-22T02:48:02.108Z,99857.81
2022-08-22T02:50:56.977Z,99855.95
2022-08-22T02:53:52.922Z,99857.14
2022-08-22T02:56:31.575Z,99859.50
2022-08-22T02:59:15.328Z,99859.27
2022-08-22T03:01:45.992Z,99862.57
2022-08-22T03:04:31.854Z,99859.06
2022-08-22T03:07:14.996Z,99863.67
2022-08-22T03:09:57.378Z,99864.91
2022-08-22T03:13:04.182Z,99865.38
2022-08-22T03:15:55.372Z,99864.20
2022-08-22T03:18:28.319Z,99866.94
2022-08-22T03:21:15.428Z,99858.42
2022-08-22T03:23:49.282Z,99858.80
2022-08-22T03:26:30.723Z,99859.44
2022-08-22T03:29:06.254Z,99862.24
2022-08-22T03:31:35.853Z,99862.09
2022-08-22T03:34:21.553Z,99860.09
2022-08-22T03:37:43.677Z,99862.48
2022-08-22T03:40:34.763Z,99866.14
2022-08-22T03:43:50.988Z,99867.63
2022-08-22T03:46:37.232Z,99867.02
2022-08-22T03:49:14.180Z,99867.17
2022-08-22T03:52:19.640Z,99871.73
2022-08-22T03:55:09.372Z,99872.27
2022-08-22T03:57:56.078Z,99872.67
2022-08-22T04:01:03.706Z,99877.11
2022-08-22T04:04:04.020Z,99880.95
2022-08-22T04:06:53.750Z,99888.13
2022-08-22T04:09:46.309Z,99890.13
2022-08-22T04:12:43.907Z,99891.16
2022-08-22T04:15:29.839Z,99889.86
2022-08-22T04:18:36.785Z,99888.02
2022-08-22T04:21:17.033Z,99884.27
2022-08-22T04:24:07.385Z,99884.45
2022-08-22T04:27:02.694Z,99889.69
2022-08-22T04:29:41.735Z,99891.29
2022-08-22T04:32:17.546Z,99891.34
2022-08-22T04:34:51.284Z,99900.13
2022-08-22T04:37:46.426Z,99899.02
2022-08-22T04:40:23.981Z,99901.56
2022-08-22T04:42:59.579Z,99904.15
2022-08-22T04:45:32.914Z,99904.27
2022-08-22T04:48:08.807Z,99906.27
2022-08-22T04:50:45.997Z,99908.19
2022-08-22T04:53:23.330Z,99905.64
2022-08-22T04:55:54.198Z,99909.43
2022-08-22T04:58:55.754Z,99907.27
2022-08-22T05:01:57.749Z,99907.17
2022-08-22T05:04:30.085Z,99908.20
2022-08-22T05:07:20.362Z,99912.21
2022-08-22T05:10:12.290Z,99916.25
2022-08-22T05:12:46.091Z,99918.54
2022-08-22T05:15:22.965Z,99918.38
2022-08-22T05:17:53.856Z,99927.65
2022-08-22T05:20:26.527Z,99927.70
2022-08-22T05:23:01.611Z,99930.61
2022-08-22T05:25:36.438Z,99932.83
2022-08-22T05:28:11.985Z,99929.80
2022-08-22T05:30:40.247Z,99934.36
2022-08-22T05:33:32.595Z,99930.95
2022-08-22T05:36:07.845Z,99933.44
2022-08-22T05:38:40.334Z,99931.59
2022-08-22T05:41:11.302Z,99930.67
2022-08-22T05:43:42.264Z,99935.95
2022-08-22T05:46:19.085Z,99936.92
2022-08-22T05:48:56.847Z,99940.27
2022-08-22T05:51:48.757Z,99940.96
2022-08-22T05:54:21.184Z,99940.58
2022-08-22T05:57:20.254Z,99941.96
2022-08-22T05:59:53.965Z,99937.41
2022-08-22T06:02:26.329Z,99939.02
2022-08-22T06:04:59.533Z,99940.02
2022-08-22T06:07:35.472Z,99937.55
2022-08-22T06:10:21.808Z,99933.92
2022-08-22T06:13:05.339Z,99933.63
2022-08-22T06:15:50.344Z,99933.95
2022-08-22T06:18:24.154Z,99929.88
2022-08-22T06:20:59.401Z,99929.17
2022-08-22T06:23:30.504Z,99932.39
2022-08-22T06:26:01.022Z,99936.38
2022-08-22T06:28:37.504Z,99934.27
2022-08-22T06:31:30.204Z,99933.59
2022-08-22T06:34:03.862Z,99934.72
2022-08-22T06:36:34.159Z,99938.36
2022-08-22T06:39:05.658Z,99942.03
2022-08-22T06:41:37.652Z,99947.17
2022-08-22T06:44:07.685Z,99946.49
2022-08-22T06:46:37.565Z,99950.41
2022-08-22T06:49:07.333Z,99948.36
2022-08-22T06:51:37.113Z,99952.31
2022-08-22T06:54:08.284Z,99953.88
2022-08-22T06:56:40.399Z,99960.33
2022-08-22T06:59:14.019Z,99956.01
2022-08-22T07:02:09.856Z,99959.80
2022-08-22T07:04:38.700Z,99960.89
2022-08-22T07:07:06.529Z,99962.66
2022-08-22T07:09:37.371Z,99965.96
2022-08-22T07:12:18.389Z,99964.85
2022-08-22T07:14:51.470Z,99967.69
2022-08-22T07:17:26.116Z,99965.53
2022-08-22T07:20:10.882Z,99966.96
2022-08-22T07:22:39.281Z,99970.66
2022-08-22T07:25:13.734Z,99968.77
2022-08-22T07:28:00.472Z,99976.12
2022-08-22T07:30:44.311Z,99974.95
2022-08-22T07:33:27.103Z,99980.14
2022-08-22T07:36:04.090Z,99981.15
2022-08-22T07:38:43.083Z,99977.77
2022-08-22T07:41:24.669Z,99976.30
2022-08-22T07:43:55.205Z,99975.46
2022-08-22T07:46:32.856Z,99975.04
2022-08-22T07:49:15.570Z,99978.20
2022-08-22T07:51:55.723Z,99981.98
2022-08-22T07:54:41.801Z,99979.80
2022-08-22T07:57:22.513Z,99976.58
2022-08-22T07:59:55.638Z,99975.25
2022-08-22T08:02:24.555Z,99981.79
2022-08-22T08:04:55.194Z,99987.01
2022-08-22T08:07:26.111Z,99984.16
2022-08-22T08:10:01.679Z,99978.03
2022-08-22T08:12:34.208Z,99974.84
2022-08-22T08:15:04.623Z,99977.13
2022-08-22T08:17:34.747Z,99978.89
2022-08-22T08:20:12.211Z,99979.52
2022-08-22T08:22:43.674Z,99982.39
2022-08-22T08:25:17.669Z,99985.93
2022-08-22T08:28:04.505Z,99987.52
2022-08-22T08:30:32.355Z,99987.55
2022-08-22T08:33:24.625Z,99986.98
2022-08-22T08:36:10.174Z,99985.45
2022-08-22T08:38:45.622Z,99983.64
2022-08-22T08:41:46.972Z,99986.61
2022-08-22T08:44:35.852Z,99989.81
2022-08-22T08:47:06.351Z,99990.98
2022-08-22T08:49:42.952Z,99991.15
2022-08-22T08:52:11.102Z,99991.83
2022-08-22T08:54:44.992Z,99993.36
2022-08-22T08:57:42.862Z,99993.38
2022-08-22T09:00:16.377Z,99988.89
2022-08-22T09:02:54.193Z,99985.73
2022-08-22T09:05:49.879Z,99985.27
2022-08-22T09:08:34.852Z,99990.30
2022-08-22T09:11:28.115Z,99991.73
2022-08-22T09:13:59.415Z,99986.86
2022-08-22T09:16:51.294Z,99990.70
2022-08-22T09:19:23.336Z,99990.13
2022-08-22T09:22:19.802Z,99992.52
2022-08-22T09:24:56.501Z,99989.91
2022-08-22T09:27:34.174Z,99989.88
2022-08-22T09:30:15.432Z,99991.76
2022-08-22T09:32:48.620Z,99992.71
2022-08-22T09:35:33.982Z,99997.23
2022-08-22T09:38:14.381Z,99990.81
2022-08-22T09:41:09.085Z,99989.91
2022-08-22T09:43:44.759Z,99990.24
2022-08-22T09:46:31.999Z,99985.98
2022-08-22T09:49:24.115Z,99983.58
2022-08-22T09:52:15.218Z,99983.83
2022-08-22T09:55:04.236Z,99985.26
2022-08-22T09:57:48.011Z,99982.79
2022-08-22T10:00:47.922Z,99981.20
2022-08-22T10:04:01.078Z,99983.73
2022-08-22T10:06:39.659Z,99979.33
2022-08-22T10:09:19.037Z,99979.47
2022-08-22T10:12:00.118Z,99978.13
2022-08-22T10:14:58.449Z,99981.48
2022-08-22T10:17:32.408Z,99985.10
2022-08-22T10:20:11.749Z,99977.41
2022-08-22T10:23:07.248Z,99983.92
2022-08-22T10:25:41.808Z,99981.17
2022-08-22T10:28:22.769Z,99985.11
2022-08-22T10:31:16.020Z,99986.41
2022-08-22T10:33:48.466Z,99988.10
2022-08-22T10:36:26.264Z,99984.84
2022-08-22T10:38:55.328Z,99983.39
2022-08-22T10:42:00.083Z,99984.21
2022-08-22T10:44:55.981Z,99984.43
2022-08-22T10:47:40.123Z,99987.01
2022-08-22T10:50:20.226Z,99984.73
2022-08-22T10:52:50.079Z,99988.49
2022-08-22T10:55:25.395Z,99987.59
2022-08-22T10:58:16.558Z,99986.61
2022-08-22T11:00:58.826Z,99987.21
2022-08-22T11:04:05.128Z,99987.84
2022-08-22T11:06:39.065Z,99985.10
2022-08-22T11:09:28.095Z,99984.04
2022-08-22T11:12:35.237Z,99978.73
2022-08-22T11:15:07.497Z,99980.57
2022-08-22T11:18:07.208Z,99977.99
2022-08-22T11:20:44.088Z,99982.74
2022-08-22T11:23:27.342Z,99981.54
2022-08-22T11:26:33.690Z,99978.76
2022-08-22T11:29:27.405Z,99980.09
2022-08-22T11:32:07.932Z,99983.96
2022-08-22T11:34:38.752Z,99981.69
2022-08-22T11:37:43.453Z,99983.45
2022-08-22T11:40:31.458Z,99979.61
2022-08-22T11:43:39.292Z,99980.81
2022-08-22T11:46:21.651Z,99984.72
2022-08-22T11:49:04.546Z,99989.02
2022-08-22T11:51:49.472Z,99991.60
2022-08-22T11:54:31.089Z,99987.74
2022-08-22T11:57:10.754Z,99985.98
2022-08-22T11:59:57.251Z,99991.95
2022-08-22T12:02:42.273Z,99993.45
2022-08-22T12:05:26.290Z,99992.80
2022-08-22T12:08:09.365Z,99995.45
2022-08-22T12:11:07.831Z,99991.87
2022-08-22T12:14:05.145Z,99991.73
2022-08-22T12:16:55.118Z,99990.62
2022-08-22T12:19:33.450Z,99989.20
2022-08-22T12:22:10.203Z,99987.06
2022-08-22T12:25:17.122Z,99983.55
2022-08-22T12:27:57.314Z,99982.59
2022-08-22T12:30:49.586Z,99983.55
2022-08-22T12:33:41.094Z,99978.77
2022-08-22T12:36:28.976Z,99976.63
2022-08-22T12:39:09.701Z,99980.10
2022-08-22T12:42:06.454Z,99978.84
2022-08-22T12:44:37.214Z,99977.73
2022-08-22T12:47:18.190Z,99978.21
2022-08-22T12:50:13.578Z,99974.59
2022-08-22T12:52:54.481Z,99975.85
2022-08-22T12:55:50.766Z,99974.17
2022-08-22T12:58:22.988Z,99972.79
2022-08-22T13:00:52.601Z,99972.16
2022-08-22T13:03:29.698Z,99973.77
2022-08-22T13:06:00.567Z,99973.55
2022-08-22T13:08:37.115Z,99976.08
2022-08-22T13:11:17.458Z,99972.45
2022-08-22T13:13:57.158Z,99972.54
2022-08-22T13:16:33.861Z,99971.59
2022-08-22T13:19:14.542Z,99968.72
2022-08-22T13:21:56.834Z,99965.52
2022-08-22T13:24:38.691Z,99968.17
2022-08-22T13:27:16.519Z,99969.64
2022-08-22T13:29:58.922Z,99965.87
2022-08-22T13:32:37.502Z,99965.48
2022-08-22T13:35:09.735Z,99964.86
2022-08-22T13:37:41.374Z,99962.92
2022-08-22T13:40:13.597Z,99964.98
2022-08-22T13:42:47.865Z,99960.02
2022-08-22T13:45:36.673Z,99958.84
2022-08-22T13:48:28.529Z,99959.96
2022-08-22T13:51:18.755Z,99958.83
2022-08-22T13:54:01.071Z,99957.29
2022-08-22T13:56:39.280Z,99959.01
2022-08-22T13:59:50.167Z,99959.41
2022-08-22T14:02:43.293Z,99960.92
2022-08-22T14:05:17.428Z,99958.38
2022-08-22T14:07:50.561Z,99956.09
2022-08-22T14:10:25.808Z,99950.89
2022-08-22T14:12:55.465Z,99947.88
2022-08-22T14:15:45.093Z,99945.01
2022-08-22T14:18:30.302Z,99948.27
2022-08-22T14:21:40.641Z,99945.34
2022-08-22T14:24:27.207Z,99948.44
2022-08-22T14:27:05.724Z,99945.80
2022-08-22T14:29:50.159Z,99946.81
2022-08-22T14:32:18.538Z,99943.93
2022-08-22T14:34:59.636Z,99947.56
2022-08-22T14:37:35.500Z,99947.90
2022-08-22T14:40:29.379Z,99949.37
2022-08-22T14:43:10.537Z,99950.09
2022-08-22T14:45:46.779Z,99950.54
2022-08-22T14:48:32.667Z,99951.98
2022-08-22T14:51:08.411Z,99951.20
2022-08-22T14:53:41.186Z,99949.91
2022-08-22T14:56:18.194Z,99949.52
2022-08-22T14:58:54.063Z,99945.83
2022-08-22T15:01:26.917Z,99942.39
2022-08-22T15:04:06.537Z,99938.12
2022-08-22T15:06:53.737Z,99941.07
2022-08-22T15:09:36.773Z,99936.54
2022-08-22T15:12:29.260Z,99934.54
2022-08-22T15:15:00.363Z,99938.58
2022-08-22T15:17:54.582Z,99935.55
2022-08-22T15:20:36.282Z,99940.30
2022-08-22T15:23:20.148Z,99942.27
2022-08-22T15:26:05.912Z,99939.00
2022-08-22T15:28:52.264Z,99936.96
2022-08-22T15:31:22.234Z,99931.77
2022-08-22T15:33:51.337Z,99928.41
2022-08-22T15:36:24.958Z,99925.58
2022-08-22T15:38:56.627Z,99921.34
2022-08-22T15:41:36.249Z,99918.69
2022-08-22T15:44:32.525Z,99917.68
2022-08-22T15:47:03.456Z,99918.85
2022-08-22T15:49:38.049Z,99914.61
2022-08-22T15:52:19.890Z,99915.96
2022-08-22T15:54:53.888Z,99915.45
2022-08-22T15:57:38.806Z,99916.39
2022-08-22T16:00:27.998Z,99915.36
2022-08-22T16:03:10.202Z,99912.06
2022-08-22T16:05:55.692Z,99913.57
2022-08-22T16:08:44.523Z,99914.36
2022-08-22T16:11:33.482Z,99914.09
2022-08-22T16:14:25.133Z,99916.23
2022-08-22T16:17:01.076Z,99918.00
2022-08-22T16:19:31.534Z,99925.08
2022-08-22T16:22:02.161Z,99926.23
2022-08-22T16:24:56.413Z,99926.27
2022-08-22T16:27:26.199Z,99926.71
2022-08-22T16:30:04.700Z,99929.35
2022-08-22T16:32:32.600Z,99929.11
2022-08-22T16:35:00.362Z,99924.94
2022-08-22T16:37:44.995Z,99928.23
2022-08-22T16:40:19.103Z,99929.48
2022-08-22T16:42:51.847Z,99930.98
2022-08-22T16:45:35.755Z,99926.14
2022-08-22T16:48:21.985Z,99929.72
2022-08-22T16:51:15.202Z,99925.57
2022-08-22T16:54:02.292Z,99926.65
2022-08-22T16:56:35.032Z,99934.58
2022-08-22T16:59:23.381Z,99943.77
2022-08-22T17:02:07.022Z,99941.83
2022-08-22T17:04:51.004Z,99947.48
2022-08-22T17:07:43.021Z,99956.71
2022-08-22T17:10:41.340Z,99962.87
2022-08-22T17:13:43.078Z,99966.42
2022-08-22T17:16:24.044Z,99968.23
2022-08-22T17:19:13.276Z,99972.92
2022-08-22T17:21:53.540Z,99973.64
2022-08-22T17:24:45.871Z,99976.86
2022-08-22T17:27:31.941Z,99981.98
2022-08-22T17:30:02.743Z,99982.13
2022-08-22T17:32:33.604Z,99977.22
2022-08-22T17:35:24.555Z,99978.09
2022-08-22T17:38:05.411Z,99977.17
2022-08-22T17:41:10.412Z,99984.33
2022-08-22T17:44:01.510Z,99984.79
2022-08-22T17:46:49.980Z,99988.14
2022-08-22T17:49:47.782Z,99991.29
2022-08-22T17:52:42.589Z,99992.73
2022-08-22T17:55:20.168Z,99995.39
2022-08-22T17:57:59.920Z,100006.30
2022-08-22T18:00:35.116Z,100008.86
2022-08-22T18:03:23.759Z,100010.21
2022-08-22T18:05:53.802Z,100013.29
2022-08-22T18:11:42.653Z,100018.99
2022-08-22T18:14:21.786Z,100013.60
2022-08-22T18:16:54.455Z,100007.53
2022-08-22T18:19:42.471Z,100008.09
2022-08-22T18:22:20.022Z,100016.80
2022-08-22T18:24:59.122Z,100025.69
2022-08-22T18:27:49.461Z,100025.36
2022-08-22T18:30:19.814Z,100025.77
2022-08-22T18:32:56.053Z,100026.12
2022-08-22T18:35:48.568Z,100027.34
2022-08-22T18:38:50.652Z,100033.27
2022-08-22T18:41:37.010Z,100028.30
2022-08-22T18:44:27.766Z,100022.12
2022-08-22T18:47:01.423Z,100019.72
2022-08-22T18:49:39.466Z,100015.08
2022-08-22T18:52:21.080Z,100018.81
2022-08-22T18:55:23.170Z,100016.00
2022-08-22T18:58:34.479Z,100017.92
2022-08-22T19:01:23.616Z,100025.27
2022-08-22T19:04:30.816Z,100021.17
2022-08-22T19:07:21.371Z,100024.59
2022-08-22T19:09:55.862Z,100022.58
2022-08-22T19:12:35.752Z,100023.23
2022-08-22T19:15:38.647Z,100020.36
2022-08-22T19:18:24.983Z,100022.71
2022-08-22T19:21:37.607Z,100023.90
2022-08-22T19:24:26.011Z,100020.98
2022-08-22T19:27:19.879Z,100018.08
2022-08-22T19:29:47.605Z,100012.55
2022-08-22T19:32:46.990Z,100014.08
2022-08-22T19:35:19.661Z,100014.16
2022-08-22T19:38:07.861Z,100012.36
2022-08-22T19:40:44.797Z,100020.55
2022-08-22T19:43:30.636Z,100023.83
2022-08-22T19:46:00.833Z,100026.27
2022-08-22T19:48:32.656Z,100027.45
2022-08-22T19:51:26.147Z,100025.11
2022-08-22T19:54:16.236Z,100023.70
2022-08-22T19:57:11.396Z,100024.59
2022-08-22T19:59:50.852Z,100027.75
2022-08-22T20:02:44.926Z,100030.23
2022-08-22T20:05:28.816Z,100030.86
2022-08-22T20:08:24.929Z,100029.38
2022-08-22T20:11:13.859Z,100024.80
2022-08-22T20:13:41.836Z,100018.27
2022-08-22T20:16:13.586Z,100024.85
2022-08-22T20:19:07.690Z,100024.38
2022-08-22T20:21:59.021Z,100025.50
2022-08-22T20:24:43.728Z,100019.59
2022-08-22T20:27:34.776Z,100018.83
2022-08-22T20:30:15.248Z,100020.96
2022-08-22T20:32:47.684Z,100017.56
2022-08-22T20:35:22.165Z,100019.42
2022-08-22T20:38:16.226Z,100018.79
2022-08-22T20:41:21.066Z,100024.52
2022-08-22T20:44:01.119Z,100021.86
2022-08-22T20:46:47.083Z,100019.87
2022-08-22T20:49:25.929Z,100018.31
2022-08-22T20:52:09.782Z,100020.13
2022-08-22T20:54:41.018Z,100024.80
2022-08-22T20:57:16.213Z,100023.79
2022-08-22T20:59:58.846Z,100019.46
2022-08-22T21:02:41.756Z,100013.08
2022-08-22T21:05:12.667Z,100012.80
2022-08-22T21:07:45.879Z,100003.86
2022-08-22T21:10:43.647Z,99995.37
2022-08-22T21:13:22.239Z,99999.95
2022-08-22T21:15:55.005Z,100005.29
2022-08-22T21:18:32.735Z,100012.51
2022-08-22T21:21:17.205Z,100013.32
2022-08-22T21:23:48.248Z,100008.02
2022-08-22T21:26:22.239Z,100005.81
2022-08-22T21:28:50.259Z,100005.86
2022-08-22T21:31:21.677Z,100005.55
2022-08-22T21:33:52.017Z,100000.70
2022-08-22T21:36:29.175Z,99996.42
2022-08-22T21:39:12.232Z,99994.59
2022-08-22T21:41:44.919Z,99996.70
2022-08-22T21:44:30.978Z,99998.02
2022-08-22T21:47:31.659Z,100001.05
2022-08-22T21:50:05.673Z,99997.56
2022-08-22T21:52:36.623Z,99996.55
2022-08-22T21:55:35.438Z,100001.08
2022-08-22T21:58:06.273Z,100002.13
2022-08-22T22:00:57.406Z,100001.27
2022-08-22T22:03:34.936Z,100000.11
2022-08-22T22:06:05.764Z,99995.81
2022-08-22T22:08:33.979Z,100001.79
2022-08-22T22:11:12.449Z,100002.96
2022-08-22T22:13:41.140Z,99999.17
2022-08-22T22:16:09.587Z,99996.25
2022-08-22T22:18:38.183Z,99990.53
2022-08-22T22:21:06.191Z,99986.11
2022-08-22T22:23:34.303Z,99982.43
2022-08-22T22:26:04.524Z,99981.41
2022-08-22T22:28:44.807Z,99976.25
2022-08-22T22:31:13.490Z,99970.80
2022-08-22T22:33:42.433Z,99967.07
2022-08-22T22:36:23.169Z,99967.11
2022-08-22T22:38:52.055Z,99967.97
2022-08-22T22:41:23.368Z,99966.10
2022-08-22T22:43:55.254Z,99968.69
2022-08-22T22:46:24.189Z,99973.20
2022-08-22T22:48:51.965Z,99975.48
2022-08-22T22:51:20.006Z,99972.48
2022-08-22T22:53:47.956Z,99966.55
2022-08-22T22:56:21.680Z,99967.48
2022-08-22T22:58:59.083Z,99973.97
2022-08-22T23:01:29.067Z,99975.48
2022-08-22T23:03:58.959Z,99979.02
2022-08-22T23:06:35.851Z,99979.96
2022-08-22T23:09:03.806Z,99981.38
2022-08-22T23:11:32.377Z,99976.96
2022-08-22T23:14:01.556Z,99977.87
2022-08-22T23:16:35.061Z,99977.96
2022-08-22T23:19:12.656Z,99978.98
2022-08-22T23:21:41.137Z,99980.92
2022-08-22T23:24:09.663Z,99981.85
2022-08-22T23:26:38.002Z,99976.79
2022-08-22T23:29:06.178Z,99968.08
2022-08-22T23:31:37.742Z,99963.08
2022-08-22T23:34:11.259Z,99962.02
2022-08-22T23:36:41.882Z,99963.14
2022-08-22T23:39:10.142Z,99967.59
2022-08-22T23:41:40.462Z,99965.61
2022-08-22T23:44:13.426Z,99973.30
2022-08-22T23:46:43.045Z,99975.16
2022-08-22T23:49:11.404Z,99979.32
2022-08-22T23:51:39.637Z,99984.13
2022-08-22T23:54:08.308Z,99992.81
2022-08-22T23:56:41.830Z,99993.08
2022-08-22T23:59:13.343Z,99996.89
